sensor_id;sensor_type;location;lat;lon;timestamp;pressure;altitude;pressure_sealevel;temperature;humidity
23303;BME280;11820;48.738;9.092;2023-01-31T00:00:43;97156.00;;;2.91;nan
23303;BME280;11820;48.738;9.092;2023-01-31T00:03:09;97148.16;;;2.83;nan
23303;BME280;11820;48.738;9.092;2023-01-31T00:05:34;97151.41;;;2.85;nan
23303;BME280;11820;48.738;9.092;2023-01-31T00:07:59;97141.00;;;2.77;nan
23303;BME280;11820;48.738;9.092;2023-01-31T00:10:25;97140.88;;;2.78;nan
23303;BME280;11820;48.738;9.092;2023-01-31T00:12:51;97134.06;;;2.68;nan
23303;BME280;11820;48.738;9.092;2023-01-31T00:15:16;97137.34;;;2.70;nan
23303;BME280;11820;48.738;9.092;2023-01-31T00:17:42;97141.28;;;2.63;nan
23303;BME280;11820;48.738;9.092;2023-01-31T00:20:10;97134.31;;;2.65;nan
23303;BME280;11820;48.738;9.092;2023-01-31T00:22:36;97129.16;;;2.55;nan
23303;BME280;11820;48.738;9.092;2023-01-31T00:25:01;97131.59;;;2.57;nan
23303;BME280;11820;48.738;9.092;2023-01-31T00:27:26;97125.78;;;2.55;nan
23303;BME280;11820;48.738;9.092;2023-01-31T00:29:52;97133.44;;;2.55;nan
23303;BME280;11820;48.738;9.092;2023-01-31T00:32:17;97123.25;;;2.55;nan
23303;BME280;11820;48.738;9.092;2023-01-31T00:34:43;97129.88;;;2.46;nan
23303;BME280;11820;48.738;9.092;2023-01-31T00:37:08;97118.63;;;2.49;nan
23303;BME280;11820;48.738;9.092;2023-01-31T00:39:33;97116.78;;;2.51;nan
23303;BME280;11820;48.738;9.092;2023-01-31T00:41:59;97119.81;;;2.45;nan
23303;BME280;11820;48.738;9.092;2023-01-31T00:44:24;97118.50;;;2.50;nan
23303;BME280;11820;48.738;9.092;2023-01-31T00:46:49;97112.84;;;2.47;nan
23303;BME280;11820;48.738;9.092;2023-01-31T00:49:15;97110.75;;;2.41;nan
23303;BME280;11820;48.738;9.092;2023-01-31T00:51:40;97113.31;;;2.41;nan
23303;BME280;11820;48.738;9.092;2023-01-31T00:54:05;97114.13;;;2.41;nan
23303;BME280;11820;48.738;9.092;2023-01-31T00:56:30;97124.25;;;2.32;nan
23303;BME280;11820;48.738;9.092;2023-01-31T00:58:56;97122.28;;;2.35;nan
23303;BME280;11820;48.738;9.092;2023-01-31T01:01:24;97112.63;;;2.39;nan
23303;BME280;11820;48.738;9.092;2023-01-31T01:03:51;97104.19;;;2.38;nan
23303;BME280;11820;48.738;9.092;2023-01-31T01:06:16;97109.66;;;2.34;nan
23303;BME280;11820;48.738;9.092;2023-01-31T01:08:42;97107.59;;;2.28;nan
23303;BME280;11820;48.738;9.092;2023-01-31T01:11:17;97108.63;;;2.25;nan
23303;BME280;11820;48.738;9.092;2023-01-31T01:13:43;97108.28;;;2.30;nan
23303;BME280;11820;48.738;9.092;2023-01-31T01:16:16;97117.53;;;2.31;nan
23303;BME280;11820;48.738;9.092;2023-01-31T01:18:42;97105.03;;;2.28;nan
23303;BME280;11820;48.738;9.092;2023-01-31T01:21:13;97106.66;;;2.29;nan
23303;BME280;11820;48.738;9.092;2023-01-31T01:23:40;97097.97;;;2.31;nan
23303;BME280;11820;48.738;9.092;2023-01-31T01:26:13;97111.75;;;2.29;nan
23303;BME280;11820;48.738;9.092;2023-01-31T01:28:38;97101.47;;;2.19;nan
23303;BME280;11820;48.738;9.092;2023-01-31T01:31:08;97108.38;;;2.28;nan
23303;BME280;11820;48.738;9.092;2023-01-31T01:33:35;97102.41;;;2.18;nan
23303;BME280;11820;48.738;9.092;2023-01-31T01:36:06;97104.16;;;2.18;nan
23303;BME280;11820;48.738;9.092;2023-01-31T01:38:36;97107.16;;;2.23;nan
23303;BME280;11820;48.738;9.092;2023-01-31T01:41:03;97112.50;;;2.20;nan
23303;BME280;11820;48.738;9.092;2023-01-31T01:46:25;97111.56;;;2.21;nan
23303;BME280;11820;48.738;9.092;2023-01-31T01:49:04;97113.19;;;2.22;nan
23303;BME280;11820;48.738;9.092;2023-01-31T01:51:37;97114.13;;;2.21;nan
23303;BME280;11820;48.738;9.092;2023-01-31T01:54:07;97117.22;;;2.24;nan
23303;BME280;11820;48.738;9.092;2023-01-31T01:56:36;97120.84;;;2.22;nan
23303;BME280;11820;48.738;9.092;2023-01-31T01:59:17;97128.00;;;2.17;nan
23303;BME280;11820;48.738;9.092;2023-01-31T02:01:45;97128.00;;;2.17;nan
23303;BME280;11820;48.738;9.092;2023-01-31T02:04:16;97128.59;;;2.20;nan
23303;BME280;11820;48.738;9.092;2023-01-31T02:06:44;97129.88;;;2.15;nan
23303;BME280;11820;48.738;9.092;2023-01-31T02:09:18;97132.66;;;2.23;nan
23303;BME280;11820;48.738;9.092;2023-01-31T02:11:44;97127.41;;;2.24;nan
23303;BME280;11820;48.738;9.092;2023-01-31T02:14:10;97119.47;;;2.18;nan
23303;BME280;11820;48.738;9.092;2023-01-31T02:16:36;97126.97;;;2.19;nan
23303;BME280;11820;48.738;9.092;2023-01-31T02:19:04;97136.25;;;2.20;nan
23303;BME280;11820;48.738;9.092;2023-01-31T02:24:40;97140.09;;;2.15;nan
23303;BME280;11820;48.738;9.092;2023-01-31T02:29:53;97148.31;;;2.18;nan
23303;BME280;11820;48.738;9.092;2023-01-31T02:35:52;97149.34;;;2.16;nan
23303;BME280;11820;48.738;9.092;2023-01-31T02:41:42;97141.50;;;2.19;nan
23303;BME280;11820;48.738;9.092;2023-01-31T02:44:20;97146.59;;;2.19;nan
23303;BME280;11820;48.738;9.092;2023-01-31T02:47:30;97158.75;;;2.15;nan
23303;BME280;11820;48.738;9.092;2023-01-31T02:52:38;97157.72;;;2.18;nan
23303;BME280;11820;48.738;9.092;2023-01-31T02:55:12;97157.59;;;2.19;nan
23303;BME280;11820;48.738;9.092;2023-01-31T02:57:59;97156.44;;;2.12;nan
23303;BME280;11820;48.738;9.092;2023-01-31T03:00:27;97162.81;;;2.18;nan
23303;BME280;11820;48.738;9.092;2023-01-31T03:02:53;97167.78;;;2.19;nan
23303;BME280;11820;48.738;9.092;2023-01-31T03:05:20;97161.41;;;2.14;nan
23303;BME280;11820;48.738;9.092;2023-01-31T03:07:51;97163.03;;;2.15;nan
23303;BME280;11820;48.738;9.092;2023-01-31T03:19:04;97164.22;;;2.11;nan
23303;BME280;11820;48.738;9.092;2023-01-31T03:21:43;97157.72;;;2.07;nan
23303;BME280;11820;48.738;9.092;2023-01-31T03:24:09;97165.03;;;2.11;nan
23303;BME280;11820;48.738;9.092;2023-01-31T03:26:35;97161.31;;;2.15;nan
23303;BME280;11820;48.738;9.092;2023-01-31T03:29:02;97171.28;;;2.18;nan
23303;BME280;11820;48.738;9.092;2023-01-31T03:51:58;97176.28;;;2.09;nan
23303;BME280;11820;48.738;9.092;2023-01-31T03:54:29;97177.88;;;2.10;nan
23303;BME280;11820;48.738;9.092;2023-01-31T03:57:01;97173.06;;;1.96;nan
23303;BME280;11820;48.738;9.092;2023-01-31T03:59:33;97177.34;;;1.95;nan
23303;BME280;11820;48.738;9.092;2023-01-31T04:02:03;97185.56;;;1.99;nan
23303;BME280;11820;48.738;9.092;2023-01-31T04:04:36;97189.53;;;1.92;nan
23303;BME280;11820;48.738;9.092;2023-01-31T04:07:04;97187.53;;;1.95;nan
23303;BME280;11820;48.738;9.092;2023-01-31T04:09:30;97186.97;;;1.92;nan
23303;BME280;11820;48.738;9.092;2023-01-31T04:11:58;97186.38;;;1.99;nan
23303;BME280;11820;48.738;9.092;2023-01-31T04:14:24;97191.16;;;1.93;nan
23303;BME280;11820;48.738;9.092;2023-01-31T04:16:50;97196.13;;;1.94;nan
23303;BME280;11820;48.738;9.092;2023-01-31T04:19:15;97201.34;;;1.93;nan
23303;BME280;11820;48.738;9.092;2023-01-31T04:21:40;97190.09;;;1.95;nan
23303;BME280;11820;48.738;9.092;2023-01-31T04:24:06;97195.78;;;1.99;nan
23303;BME280;11820;48.738;9.092;2023-01-31T04:26:33;97197.16;;;2.03;nan
23303;BME280;11820;48.738;9.092;2023-01-31T04:28:59;97194.25;;;1.96;nan
23303;BME280;11820;48.738;9.092;2023-01-31T04:31:24;97192.63;;;1.95;nan
23303;BME280;11820;48.738;9.092;2023-01-31T04:33:49;97193.56;;;1.94;nan
23303;BME280;11820;48.738;9.092;2023-01-31T04:36:14;97193.31;;;1.97;nan
23303;BME280;11820;48.738;9.092;2023-01-31T04:38:40;97193.91;;;2.01;nan
23303;BME280;11820;48.738;9.092;2023-01-31T04:41:05;97195.09;;;1.97;nan
23303;BME280;11820;48.738;9.092;2023-01-31T04:43:30;97193.91;;;1.90;nan
23303;BME280;11820;48.738;9.092;2023-01-31T04:45:56;97201.09;;;1.96;nan
23303;BME280;11820;48.738;9.092;2023-01-31T04:48:21;97202.97;;;1.94;nan
23303;BME280;11820;48.738;9.092;2023-01-31T04:50:46;97207.81;;;1.97;nan
23303;BME280;11820;48.738;9.092;2023-01-31T04:53:12;97205.97;;;1.99;nan
23303;BME280;11820;48.738;9.092;2023-01-31T04:55:37;97199.81;;;2.01;nan
23303;BME280;11820;48.738;9.092;2023-01-31T04:58:02;97206.31;;;2.05;nan
23303;BME280;11820;48.738;9.092;2023-01-31T05:00:28;97199.59;;;2.04;nan
23303;BME280;11820;48.738;9.092;2023-01-31T05:02:53;97200.28;;;2.06;nan
23303;BME280;11820;48.738;9.092;2023-01-31T05:05:19;97195.09;;;1.97;nan
23303;BME280;11820;48.738;9.092;2023-01-31T05:07:45;97189.06;;;1.98;nan
23303;BME280;11820;48.738;9.092;2023-01-31T05:10:11;97196.47;;;2.01;nan
23303;BME280;11820;48.738;9.092;2023-01-31T05:12:37;97197.72;;;1.95;nan
23303;BME280;11820;48.738;9.092;2023-01-31T05:15:03;97196.56;;;1.99;nan
23303;BME280;11820;48.738;9.092;2023-01-31T05:17:31;97195.09;;;1.97;nan
23303;BME280;11820;48.738;9.092;2023-01-31T05:19:56;97198.66;;;1.94;nan
23303;BME280;11820;48.738;9.092;2023-01-31T05:22:22;97199.50;;;1.95;nan
23303;BME280;11820;48.738;9.092;2023-01-31T05:24:48;97201.09;;;1.96;nan
23303;BME280;11820;48.738;9.092;2023-01-31T05:27:14;97201.56;;;1.90;nan
23303;BME280;11820;48.738;9.092;2023-01-31T05:29:40;97204.25;;;1.88;nan
23303;BME280;11820;48.738;9.092;2023-01-31T05:32:05;97202.63;;;1.87;nan
23303;BME280;11820;48.738;9.092;2023-01-31T05:34:31;97210.72;;;1.92;nan
23303;BME280;11820;48.738;9.092;2023-01-31T05:36:58;97215.38;;;1.87;nan
23303;BME280;11820;48.738;9.092;2023-01-31T05:39:24;97209.56;;;1.85;nan
23303;BME280;11820;48.738;9.092;2023-01-31T05:41:49;97217.09;;;1.87;nan
23303;BME280;11820;48.738;9.092;2023-01-31T05:44:15;97221.50;;;1.74;nan
23303;BME280;11820;48.738;9.092;2023-01-31T05:46:41;97217.78;;;1.78;nan
23303;BME280;11820;48.738;9.092;2023-01-31T05:49:06;97214.78;;;1.73;nan
23303;BME280;11820;48.738;9.092;2023-01-31T05:51:31;97210.16;;;1.67;nan
23303;BME280;11820;48.738;9.092;2023-01-31T05:53:57;97203.88;;;1.60;nan
23303;BME280;11820;48.738;9.092;2023-01-31T05:56:22;97211.31;;;1.52;nan
23303;BME280;11820;48.738;9.092;2023-01-31T05:58:49;97211.06;;;1.55;nan
23303;BME280;11820;48.738;9.092;2023-01-31T06:01:19;97207.94;;;1.52;nan
23303;BME280;11820;48.738;9.092;2023-01-31T06:03:45;97214.53;;;1.54;nan
23303;BME280;11820;48.738;9.092;2023-01-31T06:06:11;97207.59;;;1.56;nan
23303;BME280;11820;48.738;9.092;2023-01-31T06:08:36;97214.53;;;1.54;nan
23303;BME280;11820;48.738;9.092;2023-01-31T06:11:02;97213.16;;;1.50;nan
23303;BME280;11820;48.738;9.092;2023-01-31T06:13:31;97217.00;;;1.56;nan
23303;BME280;11820;48.738;9.092;2023-01-31T06:15:57;97211.88;;;1.45;nan
23303;BME280;11820;48.738;9.092;2023-01-31T06:18:22;97220.47;;;1.55;nan
23303;BME280;11820;48.738;9.092;2023-01-31T06:20:48;97219.50;;;1.45;nan
23303;BME280;11820;48.738;9.092;2023-01-31T06:23:13;97219.38;;;1.35;nan
23303;BME280;11820;48.738;9.092;2023-01-31T06:25:39;97219.16;;;1.38;nan
23303;BME280;11820;48.738;9.092;2023-01-31T06:28:04;97213.97;;;1.40;nan
23303;BME280;11820;48.738;9.092;2023-01-31T06:30:30;97221.69;;;1.38;nan
23303;BME280;11820;48.738;9.092;2023-01-31T06:32:58;97226.69;;;1.29;nan
23303;BME280;11820;48.738;9.092;2023-01-31T06:35:23;97219.84;;;1.29;nan
23303;BME280;11820;48.738;9.092;2023-01-31T06:37:49;97227.47;;;1.29;nan
23303;BME280;11820;48.738;9.092;2023-01-31T06:40:14;97227.38;;;1.31;nan
23303;BME280;11820;48.738;9.092;2023-01-31T06:42:39;97230.59;;;1.22;nan
23303;BME280;11820;48.738;9.092;2023-01-31T06:45:05;97228.88;;;1.22;nan
23303;BME280;11820;48.738;9.092;2023-01-31T06:47:30;97238.59;;;1.28;nan
23303;BME280;11820;48.738;9.092;2023-01-31T06:49:56;97234.91;;;1.32;nan
23303;BME280;11820;48.738;9.092;2023-01-31T06:52:21;97241.47;;;1.24;nan
23303;BME280;11820;48.738;9.092;2023-01-31T06:54:46;97241.25;;;1.27;nan
23303;BME280;11820;48.738;9.092;2023-01-31T06:57:11;97240.22;;;1.29;nan
23303;BME280;11820;48.738;9.092;2023-01-31T06:59:37;97228.41;;;1.28;nan
23303;BME280;11820;48.738;9.092;2023-01-31T07:02:02;97232.72;;;1.28;nan
23303;BME280;11820;48.738;9.092;2023-01-31T07:04:27;97230.72;;;1.20;nan
23303;BME280;11820;48.738;9.092;2023-01-31T07:06:53;97226.66;;;1.18;nan
23303;BME280;11820;48.738;9.092;2023-01-31T07:09:18;97209.19;;;1.24;nan
23303;BME280;11820;48.738;9.092;2023-01-31T07:11:49;97226.19;;;1.24;nan
23303;BME280;11820;48.738;9.092;2023-01-31T07:14:15;97223.78;;;1.22;nan
23303;BME280;11820;48.738;9.092;2023-01-31T07:16:40;97225.41;;;1.23;nan
23303;BME280;11820;48.738;9.092;2023-01-31T07:19:05;97221.94;;;1.24;nan
23303;BME280;11820;48.738;9.092;2023-01-31T07:21:31;97223.63;;;1.13;nan
23303;BME280;11820;48.738;9.092;2023-01-31T07:23:57;97228.28;;;1.19;nan
23303;BME280;11820;48.738;9.092;2023-01-31T07:26:23;97234.34;;;1.29;nan
23303;BME280;11820;48.738;9.092;2023-01-31T07:28:48;97225.63;;;1.31;nan
23303;BME280;11820;48.738;9.092;2023-01-31T07:31:14;97220.06;;;1.37;nan
23303;BME280;11820;48.738;9.092;2023-01-31T07:33:39;97226.22;;;1.46;nan
23303;BME280;11820;48.738;9.092;2023-01-31T07:36:06;97225.91;;;1.50;nan
23303;BME280;11820;48.738;9.092;2023-01-31T07:38:32;97235.97;;;1.52;nan
23303;BME280;11820;48.738;9.092;2023-01-31T07:41:03;97236.56;;;1.55;nan
23303;BME280;11820;48.738;9.092;2023-01-31T07:43:29;97240.50;;;1.59;nan
23303;BME280;11820;48.738;9.092;2023-01-31T07:45:55;97228.34;;;1.62;nan
23303;BME280;11820;48.738;9.092;2023-01-31T07:48:20;97241.69;;;1.66;nan
23303;BME280;11820;48.738;9.092;2023-01-31T07:50:49;97240.50;;;1.70;nan
23303;BME280;11820;48.738;9.092;2023-01-31T07:53:14;97241.22;;;1.72;nan
23303;BME280;11820;48.738;9.092;2023-01-31T07:55:39;97234.94;;;1.76;nan
23303;BME280;11820;48.738;9.092;2023-01-31T07:58:05;97231.81;;;1.83;nan
23303;BME280;11820;48.738;9.092;2023-01-31T08:00:30;97245.84;;;1.78;nan
23303;BME280;11820;48.738;9.092;2023-01-31T08:03:24;97246.63;;;1.78;nan
23303;BME280;11820;48.738;9.092;2023-01-31T08:06:06;97250.47;;;1.84;nan
23303;BME280;11820;48.738;9.092;2023-01-31T08:08:32;97245.63;;;1.92;nan
23303;BME280;11820;48.738;9.092;2023-01-31T08:10:58;97239.47;;;1.94;nan
23303;BME280;11820;48.738;9.092;2023-01-31T08:13:24;97250.09;;;1.99;nan
23303;BME280;11820;48.738;9.092;2023-01-31T08:15:51;97255.09;;;2.01;nan
23303;BME280;11820;48.738;9.092;2023-01-31T08:18:17;97246.41;;;2.14;nan
23303;BME280;11820;48.738;9.092;2023-01-31T08:20:42;97257.19;;;2.18;nan
23303;BME280;11820;48.738;9.092;2023-01-31T08:23:08;97247.66;;;2.31;nan
23303;BME280;11820;48.738;9.092;2023-01-31T08:25:33;97244.16;;;2.32;nan
23303;BME280;11820;48.738;9.092;2023-01-31T08:27:59;97244.72;;;2.46;nan
23303;BME280;11820;48.738;9.092;2023-01-31T08:30:25;97242.34;;;2.65;nan
23303;BME280;11820;48.738;9.092;2023-01-31T08:32:50;97236.91;;;2.59;nan
23303;BME280;11820;48.738;9.092;2023-01-31T08:35:15;97244.31;;;2.73;nan
23303;BME280;11820;48.738;9.092;2023-01-31T08:37:41;97241.94;;;2.81;nan
23303;BME280;11820;48.738;9.092;2023-01-31T08:40:06;97244.84;;;2.76;nan
23303;BME280;11820;48.738;9.092;2023-01-31T08:42:32;97242.03;;;2.90;nan
23303;BME280;11820;48.738;9.092;2023-01-31T08:44:57;97237.06;;;3.09;nan
23303;BME280;11820;48.738;9.092;2023-01-31T08:47:22;97233.50;;;3.01;nan
23303;BME280;11820;48.738;9.092;2023-01-31T08:49:48;97225.69;;;3.02;nan
23303;BME280;11820;48.738;9.092;2023-01-31T08:52:13;97229.53;;;3.08;nan
23303;BME280;11820;48.738;9.092;2023-01-31T08:54:38;97220.81;;;3.10;nan
23303;BME280;11820;48.738;9.092;2023-01-31T08:57:04;97215.25;;;3.25;nan
23303;BME280;11820;48.738;9.092;2023-01-31T08:59:29;97213.41;;;3.57;nan
23303;BME280;11820;48.738;9.092;2023-01-31T09:01:55;97214.47;;;3.55;nan
23303;BME280;11820;48.738;9.092;2023-01-31T09:04:20;97214.25;;;3.67;nan
23303;BME280;11820;48.738;9.092;2023-01-31T09:06:45;97220.44;;;3.65;nan
23303;BME280;11820;48.738;9.092;2023-01-31T09:09:11;97223.47;;;3.79;nan
23303;BME280;11820;48.738;9.092;2023-01-31T09:11:36;97226.16;;;3.78;nan
23303;BME280;11820;48.738;9.092;2023-01-31T09:14:01;97227.22;;;3.75;nan
23303;BME280;11820;48.738;9.092;2023-01-31T09:16:27;97222.44;;;3.91;nan
23303;BME280;11820;48.738;9.092;2023-01-31T09:18:53;97231.09;;;4.00;nan
23303;BME280;11820;48.738;9.092;2023-01-31T09:21:20;97231.97;;;4.29;nan
23303;BME280;11820;48.738;9.092;2023-01-31T09:23:46;97228.88;;;4.16;nan
23303;BME280;11820;48.738;9.092;2023-01-31T09:26:13;97230.56;;;3.96;nan
23303;BME280;11820;48.738;9.092;2023-01-31T09:28:39;97224.56;;;3.86;nan
23303;BME280;11820;48.738;9.092;2023-01-31T09:31:09;97232.34;;;4.05;nan
23303;BME280;11820;48.738;9.092;2023-01-31T09:33:35;97227.31;;;4.04;nan
23303;BME280;11820;48.738;9.092;2023-01-31T09:36:03;97223.75;;;4.16;nan
23303;BME280;11820;48.738;9.092;2023-01-31T09:38:29;97221.69;;;4.00;nan
23303;BME280;11820;48.738;9.092;2023-01-31T09:40:56;97212.22;;;3.91;nan
23303;BME280;11820;48.738;9.092;2023-01-31T09:43:27;97222.75;;;3.98;nan
23303;BME280;11820;48.738;9.092;2023-01-31T09:45:56;97221.91;;;3.88;nan
23303;BME280;11820;48.738;9.092;2023-01-31T09:48:26;97221.03;;;3.78;nan
23303;BME280;11820;48.738;9.092;2023-01-31T09:50:53;97214.28;;;3.97;nan
23303;BME280;11820;48.738;9.092;2023-01-31T09:53:22;97216.81;;;3.97;nan
23303;BME280;11820;48.738;9.092;2023-01-31T09:56:12;97212.88;;;3.93;nan
23303;BME280;11820;48.738;9.092;2023-01-31T09:58:49;97208.28;;;3.87;nan
23303;BME280;11820;48.738;9.092;2023-01-31T10:09:26;97231.91;;;4.00;nan
23303;BME280;11820;48.738;9.092;2023-01-31T10:12:04;97231.06;;;3.90;nan
23303;BME280;11820;48.738;9.092;2023-01-31T10:22:37;97243.13;;;3.79;nan
23303;BME280;11820;48.738;9.092;2023-01-31T10:27:49;97229.16;;;3.92;nan
23303;BME280;11820;48.738;9.092;2023-01-31T10:30:19;97233.22;;;3.95;nan
23303;BME280;11820;48.738;9.092;2023-01-31T10:32:50;97228.03;;;4.15;nan
23303;BME280;11820;48.738;9.092;2023-01-31T10:35:19;97219.41;;;5.03;nan
23303;BME280;11820;48.738;9.092;2023-01-31T10:37:49;97221.22;;;5.48;nan
23303;BME280;11820;48.738;9.092;2023-01-31T10:42:52;97209.09;;;5.96;nan
23303;BME280;11820;48.738;9.092;2023-01-31T10:45:25;97245.72;;;5.70;nan
23303;BME280;11820;48.738;9.092;2023-01-31T10:48:20;97216.59;;;5.61;nan
23303;BME280;11820;48.738;9.092;2023-01-31T10:51:06;97212.31;;;5.43;nan
23303;BME280;11820;48.738;9.092;2023-01-31T10:53:44;97211.56;;;5.14;nan
23303;BME280;11820;48.738;9.092;2023-01-31T10:56:25;97218.34;;;4.86;nan
23303;BME280;11820;48.738;9.092;2023-01-31T10:58:52;97230.44;;;4.94;nan
23303;BME280;11820;48.738;9.092;2023-01-31T11:01:18;97223.19;;;4.99;nan
23303;BME280;11820;48.738;9.092;2023-01-31T11:03:50;97223.31;;;4.88;nan
23303;BME280;11820;48.738;9.092;2023-01-31T11:06:16;97212.50;;;4.84;nan
23303;BME280;11820;48.738;9.092;2023-01-31T11:08:46;97215.88;;;4.75;nan
23303;BME280;11820;48.738;9.092;2023-01-31T11:11:15;97210.75;;;4.75;nan
23303;BME280;11820;48.738;9.092;2023-01-31T11:13:54;97204.44;;;4.61;nan
23303;BME280;11820;48.738;9.092;2023-01-31T11:16:20;97207.69;;;4.63;nan
23303;BME280;11820;48.738;9.092;2023-01-31T11:18:48;97207.25;;;4.48;nan
23303;BME280;11820;48.738;9.092;2023-01-31T11:21:20;97200.78;;;4.54;nan
23303;BME280;11820;48.738;9.092;2023-01-31T11:23:47;97197.00;;;4.76;nan
23303;BME280;11820;48.738;9.092;2023-01-31T11:26:24;97195.69;;;4.91;nan
23303;BME280;11820;48.738;9.092;2023-01-31T11:28:51;97182.72;;;4.93;nan
23303;BME280;11820;48.738;9.092;2023-01-31T11:31:34;97165.25;;;5.71;nan
23303;BME280;11820;48.738;9.092;2023-01-31T11:34:04;97170.81;;;5.20;nan
23303;BME280;11820;48.738;9.092;2023-01-31T11:36:42;97167.31;;;5.12;nan
23303;BME280;11820;48.738;9.092;2023-01-31T11:41:47;97149.81;;;4.98;nan
23303;BME280;11820;48.738;9.092;2023-01-31T11:44:18;97132.66;;;5.08;nan
23303;BME280;11820;48.738;9.092;2023-01-31T11:49:20;97134.94;;;5.11;nan
23303;BME280;11820;48.738;9.092;2023-01-31T11:51:47;97129.63;;;4.85;nan
23303;BME280;11820;48.738;9.092;2023-01-31T11:54:20;97118.00;;;4.91;nan
23303;BME280;11820;48.738;9.092;2023-01-31T11:56:48;97120.44;;;4.92;nan
23303;BME280;11820;48.738;9.092;2023-01-31T11:59:27;97137.91;;;5.06;nan
23303;BME280;11820;48.738;9.092;2023-01-31T12:01:57;97148.19;;;4.97;nan
23303;BME280;11820;48.738;9.092;2023-01-31T12:04:29;97147.13;;;4.90;nan
23303;BME280;11820;48.738;9.092;2023-01-31T12:07:08;97150.34;;;4.82;nan
23303;BME280;11820;48.738;9.092;2023-01-31T12:09:44;97142.53;;;4.84;nan
23303;BME280;11820;48.738;9.092;2023-01-31T12:15:12;97146.06;;;4.64;nan
23303;BME280;11820;48.738;9.092;2023-01-31T12:17:43;97150.66;;;4.42;nan
23303;BME280;11820;48.738;9.092;2023-01-31T12:21:02;97134.63;;;4.49;nan
23303;BME280;11820;48.738;9.092;2023-01-31T12:23:11;97135.28;;;4.51;nan
23303;BME280;11820;48.738;9.092;2023-01-31T12:31:54;97115.47;;;4.53;nan
23303;BME280;11820;48.738;9.092;2023-01-31T12:40:32;97087.53;;;4.88;nan
23303;BME280;11820;48.738;9.092;2023-01-31T12:43:00;97064.88;;;4.83;nan
23303;BME280;11820;48.738;9.092;2023-01-31T12:45:43;97066.53;;;4.75;nan
23303;BME280;11820;48.738;9.092;2023-01-31T12:48:22;97085.28;;;4.57;nan
23303;BME280;11820;48.738;9.092;2023-01-31T12:53:52;97079.25;;;4.29;nan
23303;BME280;11820;48.738;9.092;2023-01-31T13:04:51;97070.22;;;4.16;nan
23303;BME280;11820;48.738;9.092;2023-01-31T13:07:31;97062.00;;;4.12;nan
23303;BME280;11820;48.738;9.092;2023-01-31T13:10:01;97062.81;;;4.13;nan
23303;BME280;11820;48.738;9.092;2023-01-31T13:12:30;97069.53;;;4.04;nan
23303;BME280;11820;48.738;9.092;2023-01-31T13:15:02;97049.06;;;4.04;nan
23303;BME280;11820;48.738;9.092;2023-01-31T13:17:31;97063.19;;;3.99;nan
23303;BME280;11820;48.738;9.092;2023-01-31T13:20:02;97063.34;;;3.97;nan
23303;BME280;11820;48.738;9.092;2023-01-31T13:22:44;97044.06;;;4.03;nan
23303;BME280;11820;48.738;9.092;2023-01-31T13:25:38;97052.84;;;4.00;nan
23303;BME280;11820;48.738;9.092;2023-01-31T13:28:12;97056.63;;;3.96;nan
23303;BME280;11820;48.738;9.092;2023-01-31T13:30:57;97058.47;;;3.94;nan
23303;BME280;11820;48.738;9.092;2023-01-31T13:33:33;97050.41;;;3.99;nan
23303;BME280;11820;48.738;9.092;2023-01-31T13:36:07;97051.47;;;4.06;nan
23303;BME280;11820;48.738;9.092;2023-01-31T13:38:40;97040.31;;;3.97;nan
23303;BME280;11820;48.738;9.092;2023-01-31T13:41:12;97039.09;;;3.92;nan
23303;BME280;11820;48.738;9.092;2023-01-31T13:43:41;97043.66;;;3.88;nan
23303;BME280;11820;48.738;9.092;2023-01-31T13:46:08;97042.03;;;3.87;nan
23303;BME280;11820;48.738;9.092;2023-01-31T13:49:08;97044.22;;;4.01;nan
23303;BME280;11820;48.738;9.092;2023-01-31T13:51:54;97041.13;;;4.07;nan
23303;BME280;11820;48.738;9.092;2023-01-31T13:54:22;97039.63;;;4.14;nan
23303;BME280;11820;48.738;9.092;2023-01-31T13:56:53;97038.44;;;4.09;nan
23303;BME280;11820;48.738;9.092;2023-01-31T13:59:23;97038.16;;;4.02;nan
23303;BME280;11820;48.738;9.092;2023-01-31T14:01:50;97036.66;;;4.00;nan
23303;BME280;11820;48.738;9.092;2023-01-31T14:09:36;97052.00;;;3.90;nan
23303;BME280;11820;48.738;9.092;2023-01-31T14:22:19;97021.03;;;3.93;nan
23303;BME280;11820;48.738;9.092;2023-01-31T14:27:17;97026.19;;;3.84;nan
23303;BME280;11820;48.738;9.092;2023-01-31T14:29:45;97008.94;;;3.95;nan
23303;BME280;11820;48.738;9.092;2023-01-31T14:32:16;97010.81;;;4.03;nan
23303;BME280;11820;48.738;9.092;2023-01-31T14:34:49;97018.38;;;4.04;nan
23303;BME280;11820;48.738;9.092;2023-01-31T14:43:32;96992.09;;;4.76;nan
23303;BME280;11820;48.738;9.092;2023-01-31T15:11:00;96978.09;;;4.25;nan
23303;BME280;11820;48.738;9.092;2023-01-31T15:13:49;96991.13;;;4.32;nan
23303;BME280;11820;48.738;9.092;2023-01-31T15:16:28;96987.22;;;4.37;nan
23303;BME280;11820;48.738;9.092;2023-01-31T15:19:12;97006.63;;;4.40;nan
23303;BME280;11820;48.738;9.092;2023-01-31T15:21:46;97020.88;;;4.42;nan
23303;BME280;11820;48.738;9.092;2023-01-31T15:24:34;97020.22;;;4.31;nan
23303;BME280;11820;48.738;9.092;2023-01-31T15:27:01;97032.22;;;4.30;nan
23303;BME280;11820;48.738;9.092;2023-01-31T15:29:33;97031.28;;;4.31;nan
23303;BME280;11820;48.738;9.092;2023-01-31T15:32:22;97033.44;;;4.26;nan
23303;BME280;11820;48.738;9.092;2023-01-31T15:35:03;97022.13;;;4.19;nan
23303;BME280;11820;48.738;9.092;2023-01-31T15:37:32;97023.22;;;4.26;nan
23303;BME280;11820;48.738;9.092;2023-01-31T15:40:24;97017.28;;;4.16;nan
23303;BME280;11820;48.738;9.092;2023-01-31T15:42:50;97020.25;;;4.21;nan
23303;BME280;11820;48.738;9.092;2023-01-31T15:45:22;97022.13;;;4.19;nan
23303;BME280;11820;48.738;9.092;2023-01-31T15:50:23;97027.22;;;4.19;nan
23303;BME280;11820;48.738;9.092;2023-01-31T15:52:48;97027.00;;;4.22;nan
23303;BME280;11820;48.738;9.092;2023-01-31T15:55:16;97016.06;;;4.20;nan
23303;BME280;11820;48.738;9.092;2023-01-31T15:57:48;97021.06;;;4.12;nan
23303;BME280;11820;48.738;9.092;2023-01-31T16:00:32;97009.19;;;4.11;nan
23303;BME280;11820;48.738;9.092;2023-01-31T16:02:58;97005.97;;;4.09;nan
23303;BME280;11820;48.738;9.092;2023-01-31T16:05:32;97013.53;;;4.11;nan
23303;BME280;11820;48.738;9.092;2023-01-31T16:08:00;97012.16;;;4.16;nan
23303;BME280;11820;48.738;9.092;2023-01-31T16:10:27;97007.97;;;4.15;nan
23303;BME280;11820;48.738;9.092;2023-01-31T16:12:55;97024.56;;;4.11;nan
23303;BME280;11820;48.738;9.092;2023-01-31T16:15:28;97021.88;;;4.13;nan